Time;durP1;ratioP1;P1;durP2;ratioP2;P2;SDS_P1;SDS_P2;PMS_P1;PMS_P2;Temp;Humidity;BMP_temperature;BMP_pressure;BME280_temperature;BME280_humidity;BME280_pressure;Samples;Min_cycle;Max_cycle;Signal;HPM_P1;HPM_P2
2024/04/10 00:01:25;;;;;;;1.70;1.05;;;;;;;9.09;100.00;98804.94;6108254;19;19998;-70
2024/04/10 00:03:26;;;;;;;2.58;1.33;;;;;;;9.11;100.00;98813.69;6106502;19;20010;-70
2024/04/10 00:05:26;;;;;;;3.05;1.20;;;;;;;9.10;100.00;98812.88;6106698;19;19999;-70
2024/04/10 00:07:27;;;;;;;1.98;1.20;;;;;;;9.12;100.00;98816.09;6107664;19;20036;-70
2024/04/10 00:09:27;;;;;;;2.22;1.08;;;;;;;9.12;100.00;98818.84;6106881;19;20010;-70
2024/04/10 00:11:27;;;;;;;3.15;1.10;;;;;;;9.12;100.00;98818.84;6106500;19;20038;-70
2024/04/10 00:13:30;;;;;;;3.42;1.30;;;;;;;9.09;100.00;98814.03;6107684;19;20463;-70
2024/04/10 00:15:30;;;;;;;2.92;1.20;;;;;;;9.11;100.00;98813.69;6099093;19;20003;-70
2024/04/10 00:17:31;;;;;;;4.82;1.52;;;;;;;9.10;100.00;98820.34;6105473;19;20066;-70
2024/04/10 00:19:31;;;;;;;3.38;1.33;;;;;;;9.08;100.00;98820.72;6106069;19;20079;-70
2024/04/10 00:21:33;;;;;;;3.83;1.33;;;;;;;9.04;100.00;98819.03;6107027;19;21155;-70
2024/04/10 00:23:33;;;;;;;2.63;1.73;;;;;;;9.00;100.00;98816.97;6106888;19;20352;-70
2024/04/10 00:25:34;;;;;;;5.30;1.27;;;;;;;9.02;100.00;98833.22;6103242;19;20003;-70
2024/04/10 00:27:34;;;;;;;4.53;1.63;;;;;;;9.01;100.00;98832.38;6105782;19;20003;-70
2024/04/10 00:29:34;;;;;;;5.30;1.85;;;;;;;9.01;100.00;98823.31;6108106;19;20038;-70
2024/04/10 00:31:35;;;;;;;4.40;1.45;;;;;;;8.97;100.00;98819.66;6113483;19;20006;-70
2024/04/10 00:33:38;;;;;;;5.35;1.40;;;;;;;8.96;100.00;98821.63;6111592;19;20335;-70
2024/04/10 00:35:38;;;;;;;3.63;1.40;;;;;;;8.95;100.00;98824.75;6112391;19;20138;-70
2024/04/10 00:37:39;;;;;;;3.33;1.33;;;;;;;8.89;100.00;98823.44;6112500;19;20006;-70
2024/04/10 00:39:39;;;;;;;5.50;1.70;;;;;;;8.90;100.00;98830.53;6111471;19;20006;-70
2024/04/10 00:41:39;;;;;;;5.45;1.48;;;;;;;8.88;100.00;98833.66;6112117;19;20525;-70
2024/04/10 00:43:40;;;;;;;2.20;1.15;;;;;;;8.87;100.00;98845.88;6112786;19;20090;-70
2024/04/10 00:45:41;;;;;;;3.90;1.42;;;;;;;8.87;100.00;98837.59;6111127;19;20006;-70
2024/04/10 00:47:41;;;;;;;3.15;1.40;;;;;;;8.87;100.00;98843.09;6111641;19;20511;-70
2024/04/10 00:49:42;;;;;;;2.72;1.00;;;;;;;8.84;100.00;98838.28;6111488;19;20349;-70
2024/04/10 00:51:42;;;;;;;4.35;1.17;;;;;;;8.87;100.00;98840.34;6112227;19;20017;-70
2024/04/10 00:53:43;;;;;;;3.45;1.40;;;;;;;8.84;100.00;98838.28;6112146;19;20002;-70
2024/04/10 00:55:44;;;;;;;3.75;1.20;;;;;;;8.84;100.00;98843.81;6112232;19;20078;-70
2024/04/10 00:57:44;;;;;;;3.95;1.50;;;;;;;8.81;100.00;98841.75;6111665;19;20006;-70
2024/04/10 00:59:45;;;;;;;3.08;1.35;;;;;;;8.82;100.00;98842.56;6111055;19;20011;-70
2024/04/10 01:01:45;;;;;;;2.50;1.20;;;;;;;8.79;100.00;98837.78;6110805;19;20111;-70
2024/04/10 01:03:45;;;;;;;5.40;1.23;;;;;;;8.76;100.00;98844.78;6112758;19;20007;-70
2024/04/10 01:06:01;;;;;;;3.10;1.20;;;;;;;8.77;100.00;98853.84;6111359;19;20081;-70
2024/04/10 01:08:02;;;;;;;5.95;1.58;;;;;;;8.75;100.00;98865.25;6110407;19;20455;-71
2024/04/10 01:10:02;;;;;;;4.20;1.20;;;;;;;8.73;100.00;98856.53;6110346;19;20003;-71
2024/04/10 01:12:04;;;;;;;1.75;1.10;;;;;;;8.77;100.00;98867.66;6110426;19;19999;-71
2024/04/10 01:14:04;;;;;;;3.78;1.40;;;;;;;8.73;100.00;98854.59;6111180;19;20002;-71
2024/04/10 01:16:05;;;;;;;2.30;1.40;;;;;;;8.73;100.00;98854.59;6106723;19;20006;-71
2024/04/10 01:18:05;;;;;;;4.75;1.33;;;;;;;8.76;100.00;98863.28;6103291;19;19999;-71
2024/04/10 01:20:07;;;;;;;2.92;1.50;;;;;;;8.73;100.00;98867.56;6103132;19;20014;-71
2024/04/10 01:22:07;;;;;;;2.50;1.10;;;;;;;8.67;100.00;98871.75;6104744;19;20239;-71
2024/04/10 01:24:07;;;;;;;4.57;1.10;;;;;;;8.62;100.00;98875.59;6103750;19;20019;-71
2024/04/10 01:26:08;;;;;;;3.65;1.20;;;;;;;8.59;100.00;98867.22;6104153;19;20002;-71
2024/04/10 01:28:08;;;;;;;2.22;1.17;;;;;;;8.55;100.00;98871.84;6103537;19;20003;-70
2024/04/10 01:30:08;;;;;;;1.60;1.25;;;;;;;8.55;100.00;98874.59;6102719;19;20378;-70
2024/04/10 01:32:09;;;;;;;4.55;1.40;;;;;;;8.60;100.00;98891.69;6103349;19;20018;-70
2024/04/10 01:34:09;;;;;;;2.33;1.25;;;;;;;8.54;100.00;98893.13;6103208;19;20006;-70
2024/04/10 01:36:09;;;;;;;1.95;1.10;;;;;;;8.50;100.00;98897.72;6104712;19;20070;-71
2024/04/10 01:38:10;;;;;;;3.08;1.40;;;;;;;8.50;100.00;98899.69;6102335;19;20087;-70
2024/04/10 01:40:10;;;;;;;3.22;1.38;;;;;;;8.51;100.00;98909.56;6102643;19;20392;-70
2024/04/10 01:42:11;;;;;;;3.70;1.30;;;;;;;8.49;100.00;98900.84;6101943;19;20014;-70
2024/04/10 01:44:11;;;;;;;5.28;1.33;;;;;;;8.46;100.00;98907.06;6103669;19;20342;-70
2024/04/10 01:46:11;;;;;;;2.50;1.15;;;;;;;8.40;100.00;98898.25;6101968;19;20523;-71
2024/04/10 01:48:12;;;;;;;3.88;1.45;;;;;;;8.36;100.00;98903.69;6104190;19;20323;-70
2024/04/10 01:50:12;;;;;;;2.97;1.42;;;;;;;8.33;100.00;98907.09;6103122;19;20039;-70
2024/04/10 01:52:12;;;;;;;3.70;1.40;;;;;;;8.31;100.00;98912.16;6103920;19;20085;-70
2024/04/10 01:54:13;;;;;;;3.38;1.10;;;;;;;8.33;100.00;98920.06;6103706;19;20014;-70
2024/04/10 01:56:13;;;;;;;5.28;1.40;;;;;;;8.31;100.00;98919.63;6103504;19;20010;-70
2024/04/10 01:58:14;;;;;;;3.05;1.30;;;;;;;8.32;100.00;98915.72;6102671;19;20010;-70
2024/04/10 02:00:18;;;;;;;4.38;2.17;;;;;;;8.32;100.00;98930.31;6101551;19;19999;-70
2024/04/10 02:02:19;;;;;;;3.53;1.30;;;;;;;8.28;100.00;98923.91;6102554;19;20102;-70
2024/04/10 02:04:19;;;;;;;2.63;1.38;;;;;;;8.24;100.00;98925.75;6104052;19;20006;-70
2024/04/10 02:06:19;;;;;;;1.98;1.13;;;;;;;8.23;100.00;98926.09;6102657;19;20006;-70
2024/04/10 02:08:20;;;;;;;4.38;1.70;;;;;;;8.23;100.00;98929.66;6102215;19;20007;-70
2024/04/10 02:10:21;;;;;;;4.85;1.23;;;;;;;8.23;100.00;98935.16;6102294;19;21339;-70
2024/04/10 02:12:22;;;;;;;3.53;1.20;;;;;;;8.23;100.00;98937.13;6103317;19;20029;-70
2024/04/10 02:14:22;;;;;;;2.60;1.40;;;;;;;8.21;100.00;98937.50;6101640;19;20011;-70
2024/04/10 02:16:23;;;;;;;2.95;1.30;;;;;;;8.20;100.00;98927.63;6106774;19;20037;-70
2024/04/10 02:18:24;;;;;;;4.28;2.15;;;;;;;8.18;100.00;98936.22;6108766;19;20002;-70
2024/04/10 02:20:24;;;;;;;3.60;1.50;;;;;;;8.19;100.00;98937.00;6109884;19;20016;-70
2024/04/10 02:22:24;;;;;;;2.85;1.40;;;;;;;8.17;100.00;98944.84;6109875;19;20010;-70
2024/04/10 02:24:24;;;;;;;5.22;2.28;;;;;;;8.17;100.00;98950.34;6108897;19;20028;-70
2024/04/10 02:26:25;;;;;;;5.32;1.60;;;;;;;8.17;100.00;98961.38;6109427;19;20066;-70
2024/04/10 02:28:25;;;;;;;7.22;1.25;;;;;;;8.15;100.00;98964.50;6107822;19;21362;-70
2024/04/10 02:30:25;;;;;;;3.13;1.23;;;;;;;8.14;100.00;98964.84;6109199;19;20011;-70
2024/04/10 02:32:26;;;;;;;4.78;1.30;;;;;;;8.14;100.00;98965.66;6110016;19;20011;-70
2024/04/10 02:34:26;;;;;;;5.63;1.67;;;;;;;8.15;100.00;98966.44;6109076;19;20016;-70
2024/04/10 02:36:26;;;;;;;5.55;1.50;;;;;;;8.15;100.00;98970.00;6109640;19;20805;-70
2024/04/10 02:38:28;;;;;;;4.28;2.30;;;;;;;8.16;100.00;98968.03;6109649;19;20060;-70
2024/04/10 02:40:29;;;;;;;6.20;1.40;;;;;;;8.13;100.00;98974.25;6109038;19;20478;-70
2024/04/10 02:42:30;;;;;;;2.47;1.40;;;;;;;8.14;100.00;98973.13;6108923;19;20011;-70
2024/04/10 02:44:30;;;;;;;6.70;1.65;;;;;;;8.14;100.00;98978.63;6109542;19;20010;-70
2024/04/10 02:46:30;;;;;;;3.60;1.30;;;;;;;8.12;100.00;98983.69;6109575;19;20556;-70
2024/04/10 02:48:31;;;;;;;3.22;1.65;;;;;;;8.05;100.00;98977.97;6108127;19;20018;-70
2024/04/10 02:50:32;;;;;;;2.83;1.55;;;;;;;8.05;100.00;98991.75;6110216;19;20011;-70
2024/04/10 02:52:32;;;;;;;2.25;1.50;;;;;;;8.03;100.00;98996.81;6107918;19;20297;-70
2024/04/10 02:54:33;;;;;;;5.47;1.65;;;;;;;8.04;100.00;99004.72;6109234;19;20006;-70
2024/04/10 02:56:33;;;;;;;2.30;1.33;;;;;;;8.01;100.00;99001.84;6108839;19;20114;-70
2024/04/10 02:58:33;;;;;;;2.75;1.45;;;;;;;7.99;100.00;99004.16;6107093;19;20007;-70
2024/04/10 03:00:35;;;;;;;2.10;1.50;;;;;;;7.96;100.00;99008.41;6109082;19;20002;-70
2024/04/10 03:02:35;;;;;;;5.10;1.70;;;;;;;7.97;100.00;99003.72;6109071;19;20029;-70
2024/04/10 03:04:35;;;;;;;5.07;1.20;;;;;;;7.95;100.00;99004.06;6109146;19;20010;-70
2024/04/10 03:06:36;;;;;;;5.57;1.83;;;;;;;7.94;100.00;99015.41;6108868;19;20442;-70
2024/04/10 03:08:36;;;;;;;2.72;1.30;;;;;;;7.90;100.00;99020.81;6107020;19;20078;-70
2024/04/10 03:10:37;;;;;;;5.05;1.48;;;;;;;7.87;100.00;99032.53;6108457;19;20312;-70
2024/04/10 03:12:38;;;;;;;5.75;2.33;;;;;;;7.89;100.00;99030.25;6108390;19;20011;-70
2024/04/10 03:14:42;;;;;;;5.15;1.70;;;;;;;7.88;100.00;99021.16;6108893;19;20959;-70
2024/04/10 03:16:42;;;;;;;2.75;1.35;;;;;;;7.90;100.00;99023.56;6109235;19;20014;-70
2024/04/10 03:18:43;;;;;;;4.20;1.73;;;;;;;7.89;100.00;99039.31;6108578;19;20319;-70
2024/04/10 03:20:43;;;;;;;3.95;1.50;;;;;;;7.85;100.00;99051.34;6108947;19;20363;-70
2024/04/10 03:22:44;;;;;;;2.42;1.38;;;;;;;7.85;100.00;99043.88;6109265;19;20002;-70
2024/04/10 03:24:44;;;;;;;2.63;1.33;;;;;;;7.85;100.00;99040.31;6109597;19;20043;-70
2024/04/10 03:26:44;;;;;;;4.63;1.65;;;;;;;7.82;100.00;99044.59;6109160;19;20035;-70
2024/04/10 03:28:45;;;;;;;2.83;1.30;;;;;;;7.79;100.00;99042.53;6107210;19;20010;-70
2024/04/10 03:30:51;;;;;;;4.22;1.38;;;;;;;7.77;100.00;99055.84;6109158;19;20006;-70
2024/04/10 03:32:52;;;;;;;2.67;1.42;;;;;;;7.74;100.00;99052.97;6108886;19;20443;-70
2024/04/10 03:34:53;;;;;;;2.60;1.30;;;;;;;7.69;100.00;99053.19;6109558;19;20015;-70
2024/04/10 03:39:51;;;;;;;2.53;1.20;;;;;;;7.66;100.00;99051.94;6098314;19;20025;-70
2024/04/10 03:41:52;;;;;;;3.30;1.30;;;;;;;7.62;100.00;99067.56;6107290;19;20081;-70
2024/04/10 03:43:52;;;;;;;3.42;1.30;;;;;;;7.65;100.00;99077.09;6107879;19;20023;-70
2024/04/10 03:45:53;;;;;;;7.20;1.70;;;;;;;7.60;100.00;99084.41;6107756;19;20011;-70
2024/04/10 03:47:53;;;;;;;6.05;1.35;;;;;;;7.59;100.00;99084.75;6107085;19;20013;-70
2024/04/10 03:49:54;;;;;;;3.60;1.50;;;;;;;7.60;100.00;99089.91;6106777;19;20451;-70
2024/04/10 03:51:54;;;;;;;1.85;1.25;;;;;;;7.62;100.00;99099.81;6107372;19;20006;-70
2024/04/10 03:53:54;;;;;;;5.50;1.60;;;;;;;7.63;100.00;99101.41;6109153;19;20015;-70
2024/04/10 03:55:55;;;;;;;3.17;1.35;;;;;;;7.63;100.00;99102.22;6108065;19;20011;-70
2024/04/10 03:57:55;;;;;;;8.52;2.55;;;;;;;7.68;100.00;99112.97;6104971;19;20014;-70
2024/04/10 03:59:55;;;;;;;9.45;2.05;;;;;;;7.68;100.00;99112.19;6107227;19;20013;-70
2024/04/10 04:01:56;;;;;;;4.35;1.60;;;;;;;7.68;100.00;99112.19;6107804;19;20010;-70
2024/04/10 04:04:02;;;;;;;2.67;1.45;;;;;;;7.71;100.00;99117.03;6107700;19;20108;-70
2024/04/10 04:06:03;;;;;;;2.92;1.20;;;;;;;7.69;100.00;99122.84;6111651;19;20007;-70
2024/04/10 04:08:04;;;;;;;4.50;1.88;;;;;;;7.71;100.00;99125.28;6111248;19;20009;-70
2024/04/10 04:10:05;;;;;;;2.80;1.30;;;;;;;7.70;100.00;99121.72;6110827;19;20003;-70
2024/04/10 04:12:06;;;;;;;2.53;1.20;;;;;;;7.71;100.00;99134.34;6111362;19;20003;-70
2024/04/10 04:14:07;;;;;;;3.03;1.67;;;;;;;7.72;100.00;99127.69;6113021;19;20003;-70
2024/04/10 04:16:07;;;;;;;4.07;1.45;;;;;;;7.72;100.00;99135.16;6113333;19;20006;-70
2024/04/10 04:18:08;;;;;;;3.58;1.70;;;;;;;7.72;100.00;99135.97;6112182;19;20006;-70
2024/04/10 04:20:10;;;;;;;2.70;1.30;;;;;;;7.69;100.00;99144.09;6111611;19;20012;-70
2024/04/10 04:22:11;;;;;;;5.45;1.58;;;;;;;7.70;100.00;99152.03;6111991;19;20339;-70
2024/04/10 04:24:11;;;;;;;3.08;1.27;;;;;;;7.72;100.00;99155.25;6113189;19;19998;-70
2024/04/10 04:26:12;;;;;;;11.00;1.75;;;;;;;7.72;100.00;99149.72;6112470;19;20078;-70
2024/04/10 04:28:12;;;;;;;3.60;1.40;;;;;;;7.71;100.00;99158.34;6112072;19;19995;-70
2024/04/10 04:30:12;;;;;;;3.72;1.55;;;;;;;7.68;100.00;99162.56;6111201;19;19994;-70
2024/04/10 04:32:13;;;;;;;3.15;1.48;;;;;;;7.69;100.00;99168.88;6111831;19;20015;-70
2024/04/10 04:34:16;;;;;;;6.13;1.70;;;;;;;7.65;100.00;99166.00;6112286;19;20309;-70
2024/04/10 04:36:16;;;;;;;4.78;1.42;;;;;;;7.64;100.00;99158.91;6111907;19;20002;-68
2024/04/10 04:38:16;;;;;;;6.95;1.77;;;;;;;7.66;100.00;99155.78;6111712;19;20046;-69
2024/04/10 04:40:16;;;;;;;2.00;1.20;;;;;;;7.64;100.00;99161.66;6106232;19;20002;-69
2024/04/10 04:42:17;;;;;;;2.58;1.27;;;;;;;7.59;100.00;99162.66;6104307;19;20078;-69
2024/04/10 04:44:17;;;;;;;3.83;1.77;;;;;;;7.55;100.00;99161.75;6105059;19;20368;-69
2024/04/10 04:46:18;;;;;;;5.32;1.58;;;;;;;7.55;100.00;99163.72;6103669;19;20416;-69
2024/04/10 04:48:19;;;;;;;2.53;1.30;;;;;;;7.54;100.00;99176.66;6104628;19;20781;-69
2024/04/10 04:50:19;;;;;;;4.75;1.80;;;;;;;7.54;100.00;99182.19;6104747;19;19999;-69
2024/04/10 04:52:19;;;;;;;3.72;1.67;;;;;;;7.53;100.00;99183.31;6105721;19;20012;-69
2024/04/10 04:54:20;;;;;;;3.00;1.42;;;;;;;7.54;100.00;99189.63;6104327;19;20001;-69
2024/04/10 04:56:20;;;;;;;6.25;1.50;;;;;;;7.54;100.00;99198.69;6104955;19;20002;-69
2024/04/10 04:58:20;;;;;;;2.47;1.15;;;;;;;7.53;100.00;99205.34;6104802;19;20042;-69
2024/04/10 05:00:22;;;;;;;10.77;2.20;;;;;;;7.49;100.00;99198.09;6104365;19;20019;-69
2024/04/10 05:02:22;;;;;;;4.72;1.52;;;;;;;7.50;100.00;99202.47;6104435;19;20492;-69
2024/04/10 05:06:42;;;;;;;3.15;1.88;;;;;;;7.48;100.00;99208.31;6104993;19;20018;-69
2024/04/10 05:08:42;;;;;;;3.28;1.48;;;;;;;7.51;100.00;99206.81;6102465;19;20002;-69
2024/04/10 05:10:43;;;;;;;8.02;1.70;;;;;;;7.51;100.00;99210.38;6104877;19;20023;-69
2024/04/10 05:12:44;;;;;;;3.83;1.38;;;;;;;7.53;100.00;99205.34;6103720;19;20333;-69
2024/04/10 05:14:51;;;;;;;5.85;2.17;;;;;;;7.53;100.00;99212.78;6104745;19;20014;-69
2024/04/10 05:16:52;;;;;;;4.72;1.67;;;;;;;7.51;100.00;99215.88;6105361;19;20018;-69
2024/04/10 05:18:52;;;;;;;4.50;1.55;;;;;;;7.57;100.00;99222.00;6104793;19;20046;-69
2024/04/10 05:20:52;;;;;;;6.80;1.50;;;;;;;7.61;100.00;99211.88;6103934;19;20562;-69
2024/04/10 05:22:53;;;;;;;5.65;1.77;;;;;;;7.65;100.00;99223.84;6105039;19;20007;-69
2024/04/10 05:24:53;;;;;;;4.75;2.00;;;;;;;7.69;100.00;99227.53;6104840;19;20035;-69
2024/04/10 05:26:53;;;;;;;4.43;1.60;;;;;;;7.71;100.00;99235.47;6105705;19;20217;-69
2024/04/10 05:28:53;;;;;;;7.35;1.60;;;;;;;7.70;100.00;99239.38;6104324;19;20013;-69
2024/04/10 05:31:00;;;;;;;2.65;1.45;;;;;;;7.71;100.00;99241.78;6103573;19;20033;-69
2024/04/10 05:33:01;;;;;;;5.60;2.15;;;;;;;7.72;100.00;99251.66;6104245;19;20003;-69
2024/04/10 05:35:01;;;;;;;6.15;2.10;;;;;;;7.75;100.00;99250.94;6104041;19;20384;-69
2024/04/10 05:37:02;;;;;;;6.32;1.92;;;;;;;7.73;100.00;99253.25;6102921;19;20483;-69
2024/04/10 05:39:03;;;;;;;6.20;2.28;;;;;;;7.79;100.00;99256.59;6102252;19;20017;-69
2024/04/10 05:41:03;;;;;;;5.90;1.80;;;;;;;7.80;100.00;99261.78;6107716;19;20102;-69
2024/04/10 05:43:04;;;;;;;6.38;2.05;;;;;;;7.81;100.00;99257.06;6111180;19;20066;-69
2024/04/10 05:45:08;;;;;;;13.65;2.00;;;;;;;7.83;100.00;99263.03;6110245;19;20646;-69
2024/04/10 05:47:08;;;;;;;6.10;1.83;;;;;;;7.88;100.00;99265.59;6109808;19;20015;-69
2024/04/10 05:49:10;;;;;;;7.50;1.90;;;;;;;7.88;100.00;99273.84;6107820;19;20366;-69
2024/04/10 05:51:10;;;;;;;19.05;2.60;;;;;;;7.88;100.00;99271.09;6111287;19;20711;-69
2024/04/10 05:53:11;;;;;;;3.20;1.60;;;;;;;7.94;100.00;99277.16;6110245;19;20396;-69
2024/04/10 05:55:11;;;;;;;4.32;1.90;;;;;;;7.96;100.00;99289.47;6111371;19;20406;-69
2024/04/10 05:57:12;;;;;;;4.18;1.88;;;;;;;8.00;100.00;99287.63;6110197;19;20009;-69
2024/04/10 05:59:12;;;;;;;5.85;1.80;;;;;;;8.00;100.00;99286.84;6108646;19;20332;-69
2024/04/10 06:01:12;;;;;;;3.90;1.90;;;;;;;8.01;100.00;99288.44;6110373;19;19994;-69
2024/04/10 06:03:13;;;;;;;9.02;2.20;;;;;;;8.01;100.00;99311.28;6110473;19;20002;-69
2024/04/10 06:05:13;;;;;;;5.80;1.83;;;;;;;8.04;100.00;99304.31;6109636;19;20003;-69
2024/04/10 06:07:13;;;;;;;4.45;2.00;;;;;;;8.11;100.00;99310.06;6108970;19;20339;-69
2024/04/10 06:09:13;;;;;;;7.35;2.33;;;;;;;8.11;100.00;99312.84;6108700;19;20009;-69
2024/04/10 06:11:14;;;;;;;7.13;2.20;;;;;;;8.16;100.00;99320.88;6109013;19;20824;-69
2024/04/10 06:13:15;;;;;;;6.18;2.15;;;;;;;8.17;100.00;99320.50;6110184;19;20011;-69
2024/04/10 06:15:18;;;;;;;4.78;2.13;;;;;;;8.18;100.00;99326.84;6109917;19;20504;-69
2024/04/10 06:17:21;;;;;;;7.18;1.90;;;;;;;8.21;100.00;99326.16;6110132;19;20006;-69
2024/04/10 06:19:21;;;;;;;6.38;2.38;;;;;;;8.22;100.00;99330.53;6108461;19;20018;-69
2024/04/10 06:21:21;;;;;;;5.28;2.20;;;;;;;8.22;100.00;99329.72;6108604;19;20007;-69
2024/04/10 06:23:22;;;;;;;6.55;2.10;;;;;;;8.27;100.00;99335.00;6109485;19;20002;-69
2024/04/10 06:25:22;;;;;;;6.78;2.55;;;;;;;8.29;100.00;99339.06;6110372;19;20373;-69
2024/04/10 06:27:22;;;;;;;6.32;1.75;;;;;;;8.33;100.00;99347.44;6107884;19;20007;-69
2024/04/10 06:29:23;;;;;;;5.25;2.03;;;;;;;8.32;100.00;99346.63;6109477;19;20006;-69
2024/04/10 06:31:23;;;;;;;3.60;2.00;;;;;;;8.40;100.00;99359.53;6110166;19;20007;-69
2024/04/10 06:33:23;;;;;;;6.65;2.88;;;;;;;8.46;100.00;99359.34;6109490;19;20029;-69
2024/04/10 06:35:24;;;;;;;4.53;2.10;;;;;;;8.44;100.00;99362.44;6109461;19;20093;-69
2024/04/10 06:37:24;;;;;;;3.25;2.22;;;;;;;8.42;100.00;99360.00;6107681;19;20475;-69
2024/04/10 06:39:24;;;;;;;4.80;2.00;;;;;;;8.46;100.00;99356.56;6108516;19;20070;-69
2024/04/10 06:41:25;;;;;;;3.42;1.92;;;;;;;8.44;100.00;99367.94;6109981;19;20027;-69
2024/04/10 06:43:26;;;;;;;5.30;2.17;;;;;;;8.49;100.00;99366.91;6109374;19;20031;-69
2024/04/10 06:45:26;;;;;;;5.80;2.10;;;;;;;8.49;100.00;99372.41;6109442;19;20003;-69
2024/04/10 06:47:27;;;;;;;6.28;2.15;;;;;;;8.52;100.00;99374.50;6106070;19;20364;-69
2024/04/10 06:49:28;;;;;;;6.85;2.40;;;;;;;8.59;100.00;99377.50;6107403;19;20006;-69
2024/04/10 06:51:28;;;;;;;8.63;3.03;;;;;;;8.59;100.00;99375.53;6108866;19;20010;-69
2024/04/10 06:53:29;;;;;;;7.45;2.67;;;;;;;8.62;100.00;99379.59;6109816;19;20025;-69
2024/04/10 06:55:29;;;;;;;17.15;3.72;;;;;;;8.58;100.00;99373.94;6108920;19;20006;-69
2024/04/10 06:57:30;;;;;;;6.32;2.40;;;;;;;8.60;100.00;99379.09;6106685;19;20374;-69
2024/04/10 06:59:31;;;;;;;7.38;2.65;;;;;;;8.63;100.00;99386.69;6106634;19;20010;-69
2024/04/10 07:01:31;;;;;;;8.27;2.67;;;;;;;8.61;100.00;99386.25;6106372;19;20012;-69
2024/04/10 07:03:42;;;;;;;4.20;2.50;;;;;;;8.58;100.00;99387.72;6108828;19;20013;-69
2024/04/10 07:05:47;;;;;;;11.10;2.83;;;;;;;8.54;100.00;99388.75;6107862;19;20040;-70
2024/04/10 07:07:48;;;;;;;9.07;3.40;;;;;;;8.56;100.00;99386.47;6107308;19;20331;-69
2024/04/10 07:09:50;;;;;;;9.35;4.70;;;;;;;8.63;100.00;99384.75;6107845;19;20007;-70
2024/04/10 07:11:51;;;;;;;14.25;3.53;;;;;;;8.66;100.00;99399.81;6107090;19;20462;-70
2024/04/10 07:13:53;;;;;;;7.00;3.40;;;;;;;8.65;100.00;99398.19;6107909;19;20421;-69
2024/04/10 07:16:00;;;;;;;6.90;2.70;;;;;;;8.57;100.00;99399.91;6107139;19;20026;-70
2024/04/10 07:18:00;;;;;;;12.45;3.28;;;;;;;8.62;100.00;99407.97;6106929;19;20023;-69
2024/04/10 07:20:01;;;;;;;6.00;2.63;;;;;;;8.65;100.00;99403.72;6107349;19;20011;-70
2024/04/10 07:22:05;;;;;;;8.70;3.00;;;;;;;8.62;100.00;99407.97;6107804;19;20014;-70
2024/04/10 07:24:06;;;;;;;6.28;2.70;;;;;;;8.58;100.00;99412.53;6108347;19;20006;-71
2024/04/10 07:26:19;;;;;;;9.63;2.83;;;;;;;8.57;100.00;99410.13;6105076;19;20361;-71
2024/04/10 07:28:19;;;;;;;6.72;2.75;;;;;;;8.54;100.00;99421.88;6103603;19;20078;-71
2024/04/10 07:30:20;;;;;;;9.48;3.03;;;;;;;8.53;100.00;99429.34;6105351;19;20003;-70
2024/04/10 07:32:20;;;;;;;8.18;3.75;;;;;;;8.55;100.00;99437.25;6104950;19;20023;-70
2024/04/10 07:34:20;;;;;;;9.30;3.83;;;;;;;8.52;100.00;99429.66;6106444;19;20066;-70
2024/04/10 07:36:21;;;;;;;8.00;3.30;;;;;;;8.53;100.00;99431.28;6107252;19;20026;-70
2024/04/10 07:38:21;;;;;;;6.03;2.70;;;;;;;8.54;100.00;99438.41;6105559;19;20037;-70
2024/04/10 07:40:22;;;;;;;6.13;3.42;;;;;;;8.59;100.00;99440.94;6104059;19;20507;-70
2024/04/10 07:42:22;;;;;;;8.95;3.25;;;;;;;8.59;100.00;99440.94;6106293;19;20048;-70
2024/04/10 07:44:23;;;;;;;6.10;2.60;;;;;;;8.65;100.00;99448.66;6107946;19;20014;-70
2024/04/10 07:46:23;;;;;;;5.07;2.90;;;;;;;8.65;100.00;99456.13;6107758;19;20007;-70
2024/04/10 07:48:23;;;;;;;7.18;3.42;;;;;;;8.67;100.00;99448.31;6107693;19;20554;-70
2024/04/10 07:50:24;;;;;;;8.35;3.58;;;;;;;8.60;100.00;99470.13;6106538;19;20446;-70
2024/04/10 07:52:24;;;;;;;8.02;3.60;;;;;;;8.68;100.00;99467.28;6109570;19;20070;-70
2024/04/10 07:54:25;;;;;;;6.85;2.75;;;;;;;8.76;100.00;99476.59;6107681;19;20066;-70
2024/04/10 07:56:26;;;;;;;5.85;2.80;;;;;;;8.82;100.00;99474.44;6107203;19;20014;-70
2024/04/10 07:58:28;;;;;;;8.50;3.00;;;;;;;8.82;100.00;99475.25;6106425;19;20434;-70
2024/04/10 08:00:28;;;;;;;6.60;3.03;;;;;;;8.89;100.00;99481.00;6106877;19;20037;-70
2024/04/10 08:02:28;;;;;;;15.95;2.58;;;;;;;8.94;100.00;99483.56;6106623;19;20011;-70
2024/04/10 08:04:29;;;;;;;5.20;2.92;;;;;;;8.95;100.00;99487.13;6105065;19;20027;-70
2024/04/10 08:06:33;;;;;;;7.13;3.13;;;;;;;8.89;100.00;99486.53;6102270;19;20398;-70
2024/04/10 08:08:36;;;;;;;4.07;2.35;;;;;;;8.89;100.00;99489.28;6102266;19;20038;-70
2024/04/10 08:10:36;;;;;;;6.10;2.80;;;;;;;8.77;100.00;99496.72;6105501;19;20014;-70
2024/04/10 08:12:36;;;;;;;7.13;3.15;;;;;;;8.75;100.00;99488.00;6105463;19;20010;-70
2024/04/10 08:14:36;;;;;;;8.50;3.25;;;;;;;8.73;100.00;99499.38;6108243;19;20013;-70
2024/04/10 08:16:37;;;;;;;9.75;3.28;;;;;;;8.73;100.00;99496.59;6106792;19;20006;-70
2024/04/10 08:18:39;;;;;;;7.05;3.05;;;;;;;8.80;100.00;99501.56;6106067;19;20016;-70
2024/04/10 08:20:39;;;;;;;7.90;3.13;;;;;;;8.73;100.00;99493.84;6107715;19;20027;-70
2024/04/10 08:22:42;;;;;;;5.60;3.03;;;;;;;8.78;100.00;99498.34;6107858;19;20458;-70
2024/04/10 08:24:42;;;;;;;7.55;2.97;;;;;;;8.78;100.00;99498.34;6107573;19;20011;-70
2024/04/10 08:26:43;;;;;;;7.53;2.92;;;;;;;8.86;100.00;99498.25;6107578;19;20502;-70
2024/04/10 08:28:50;;;;;;;6.30;3.20;;;;;;;8.87;100.00;99502.63;6105865;19;20774;-70
2024/04/10 08:30:51;;;;;;;8.00;3.08;;;;;;;8.90;100.00;99509.41;6108254;19;20016;-70
2024/04/10 08:32:51;;;;;;;5.82;2.67;;;;;;;8.86;100.00;99511.25;6106540;19;20006;-70
2024/04/10 08:34:52;;;;;;;9.20;2.90;;;;;;;8.91;100.00;99520.09;6107534;19;20582;-70
2024/04/10 08:36:52;;;;;;;8.93;3.30;;;;;;;8.98;100.00;99523.13;6107551;19;20027;-70
2024/04/10 08:38:53;;;;;;;5.40;2.72;;;;;;;9.11;100.00;99531.44;6106151;19;20022;-70
2024/04/10 08:40:55;;;;;;;6.10;3.00;;;;;;;9.19;100.00;99534.09;6094868;19;20021;-70
2024/04/10 08:42:56;;;;;;;10.32;2.75;;;;;;;9.08;100.00;99527.38;6107106;19;20011;-70
2024/04/10 08:44:59;;;;;;;6.95;2.55;;;;;;;9.21;100.00;99526.25;6106694;19;20017;-70
2024/04/10 08:47:01;;;;;;;6.45;2.95;;;;;;;9.33;100.00;99535.69;6107605;19;20050;-70
2024/04/10 08:49:01;;;;;;;7.25;3.72;;;;;;;9.59;100.00;99536.16;6105720;19;20018;-70
2024/04/10 08:51:04;;;;;;;13.32;5.13;;;;;;;9.87;100.00;99535.47;6109670;19;20018;-70
2024/04/10 08:53:05;;;;;;;4.85;3.00;;;;;;;10.13;100.00;99533.13;6114080;19;20006;-70
2024/04/10 08:55:05;;;;;;;9.32;3.78;;;;;;;10.38;100.00;99536.66;6113700;19;20027;-70
2024/04/10 08:57:06;;;;;;;7.55;4.05;;;;;;;10.15;100.00;99544.63;6111759;19;20634;-70
2024/04/10 08:59:06;;;;;;;3.45;2.53;;;;;;;10.30;100.00;99541.16;6111372;19;20018;-69
2024/04/10 09:01:06;;;;;;;6.47;3.17;;;;;;;10.47;100.00;99547.56;6113380;19;20102;-70
2024/04/10 09:03:07;;;;;;;5.35;2.55;;;;;;;10.34;100.00;99547.63;6111453;19;20074;-70
2024/04/10 09:05:07;;;;;;;6.63;2.67;;;;;;;10.33;100.00;99557.03;6112901;19;20099;-70
2024/04/10 09:07:07;;;;;;;4.32;2.90;;;;;;;10.44;100.00;99551.84;6113061;19;20048;-70
2024/04/10 09:09:08;;;;;;;4.50;2.88;;;;;;;10.58;100.00;99543.94;6111005;19;20593;-69
2024/04/10 09:11:09;;;;;;;5.95;2.55;;;;;;;10.66;100.00;99554.03;6112361;19;20015;-70
2024/04/10 09:13:13;;;;;;;7.63;2.97;;;;;;;10.63;100.00;99549.22;6113313;19;20034;-70
2024/04/10 09:15:17;;;;;;;8.35;3.08;;;;;;;10.68;100.00;99546.22;6112605;19;20194;-70
2024/04/10 09:17:18;;;;;;;5.90;3.35;;;;;;;10.86;100.00;99557.78;6112743;19;20014;-69
2024/04/10 09:19:18;;;;;;;5.45;2.97;;;;;;;10.73;100.00;99561.75;6111161;19;20007;-70
2024/04/10 09:21:19;;;;;;;6.05;2.97;;;;;;;10.60;100.00;99569.31;6112371;19;20553;-70
2024/04/10 09:23:19;;;;;;;8.27;3.00;;;;;;;10.78;100.00;99571.78;6113065;19;20670;-70
2024/04/10 09:25:19;;;;;;;5.72;2.60;;;;;;;10.91;100.00;99568.59;6112051;19;20499;-70
2024/04/10 09:27:19;;;;;;;8.07;2.55;;;;;;;10.96;100.00;99559.22;6111924;19;20013;-70
2024/04/10 09:29:25;;;;;;;5.68;2.67;;;;;;;11.10;100.00;99565.16;6111891;19;20011;-70
2024/04/10 09:31:26;;;;;;;4.55;2.03;;;;;;;11.22;100.00;99573.38;6112879;19;21057;-70
2024/04/10 09:33:31;;;;;;;6.43;2.38;;;;;;;11.29;100.00;99569.19;6112163;19;20035;-70